createdAt,value
2023-05-06T00:02:08.246Z,4.65
2023-05-06T00:04:36.119Z,4.03
2023-05-06T00:07:05.779Z,4.20
2023-05-06T00:09:33.524Z,4.47
2023-05-06T00:12:01.281Z,4.15
2023-05-06T00:14:29.093Z,4.00
2023-05-06T00:16:56.855Z,4.97
2023-05-06T00:19:24.567Z,5.82
2023-05-06T00:21:52.300Z,5.75
2023-05-06T00:24:21.382Z,5.00
2023-05-06T00:26:49.161Z,5.20
2023-05-06T00:29:16.879Z,5.13
2023-05-06T00:31:45.263Z,5.10
2023-05-06T00:34:13.107Z,4.63
2023-05-06T00:36:42.835Z,4.45
2023-05-06T00:39:11.174Z,4.55
2023-05-06T00:41:40.306Z,4.00
2023-05-06T00:44:08.121Z,4.32
2023-05-06T00:46:36.915Z,4.00
2023-05-06T00:49:04.692Z,3.92
2023-05-06T00:51:32.704Z,3.40
2023-05-06T00:54:01.939Z,3.00
2023-05-06T00:56:29.878Z,3.53
2023-05-06T00:58:59.266Z,3.50
2023-05-06T01:01:27.337Z,3.22
2023-05-06T01:03:58.877Z,3.47
2023-05-06T01:06:33.603Z,2.63
2023-05-06T01:09:08.867Z,2.50
2023-05-06T01:11:42.897Z,2.70
2023-05-06T01:14:21.846Z,2.55
2023-05-06T01:16:55.325Z,2.58
2023-05-06T01:19:35.979Z,2.70
2023-05-06T01:22:06.842Z,2.97
2023-05-06T01:24:40.425Z,2.88
2023-05-06T01:27:09.557Z,3.38
2023-05-06T01:29:41.399Z,3.50
2023-05-06T01:32:22.723Z,2.80
2023-05-06T01:34:57.723Z,2.93
2023-05-06T01:37:33.232Z,2.92
2023-05-06T01:40:05.792Z,3.00
2023-05-06T01:42:35.792Z,2.88
2023-05-06T01:45:07.054Z,2.72
2023-05-06T01:47:36.205Z,3.40
2023-05-06T01:50:05.240Z,2.78
2023-05-06T01:52:32.967Z,2.60
2023-05-06T01:55:02.090Z,2.90
2023-05-06T01:57:29.941Z,3.05
2023-05-06T01:59:57.679Z,2.78
2023-05-06T02:02:25.791Z,3.00
2023-05-06T02:04:54.579Z,3.13
2023-05-06T02:07:22.306Z,3.00
2023-05-06T02:09:50.305Z,3.45
2023-05-06T02:12:19.412Z,3.28
2023-05-06T02:14:47.144Z,3.17
2023-05-06T02:17:14.891Z,3.58
2023-05-06T02:19:42.630Z,2.80
2023-05-06T02:22:10.663Z,3.35
2023-05-06T02:24:38.419Z,2.63
2023-05-06T02:27:06.323Z,2.95
2023-05-06T02:29:35.483Z,2.60
2023-05-06T02:32:03.162Z,2.83
2023-05-06T02:34:31.200Z,2.75
2023-05-06T02:36:59.026Z,2.65
2023-05-06T02:39:26.734Z,2.80
2023-05-06T02:41:54.487Z,2.55
2023-05-06T02:44:22.181Z,2.95
2023-05-06T02:46:52.076Z,2.72
2023-05-06T02:49:19.829Z,3.10
2023-05-06T02:51:47.670Z,3.00
2023-05-06T02:54:15.396Z,3.22
2023-05-06T02:56:43.741Z,3.03
2023-05-06T02:59:11.646Z,2.58
2023-05-06T03:01:39.574Z,3.05
2023-05-06T03:04:08.766Z,3.40
2023-05-06T03:06:36.678Z,3.00
2023-05-06T03:09:05.092Z,3.15
2023-05-06T03:11:34.179Z,3.10
2023-05-06T03:14:02.059Z,2.88
2023-05-06T03:16:29.932Z,3.10
2023-05-06T03:18:58.005Z,3.35
2023-05-06T03:21:27.258Z,3.35
2023-05-06T03:23:55.060Z,3.33
2023-05-06T03:26:22.873Z,3.30
2023-05-06T03:28:50.722Z,2.88
2023-05-06T03:31:18.553Z,3.60
2023-05-06T03:33:46.385Z,3.60
2023-05-06T03:36:14.761Z,3.30
2023-05-06T03:38:44.048Z,3.17
2023-05-06T03:41:12.162Z,3.58
2023-05-06T03:43:39.966Z,3.13
2023-05-06T03:46:08.081Z,2.90
2023-05-06T03:48:35.955Z,3.08
2023-05-06T03:51:04.178Z,3.30
2023-05-06T03:53:31.921Z,3.03
2023-05-06T03:56:02.201Z,3.30
2023-05-06T03:58:30.259Z,3.15
2023-05-06T04:01:01.203Z,3.22
2023-05-06T04:03:29.154Z,3.53
2023-05-06T04:05:57.270Z,2.95
2023-05-06T04:08:25.021Z,3.30
2023-05-06T04:10:52.784Z,3.03
2023-05-06T04:13:21.903Z,3.35
2023-05-06T04:15:49.969Z,3.28
2023-05-06T04:18:19.278Z,3.35
2023-05-06T04:20:49.287Z,3.38
2023-05-06T04:23:17.312Z,3.42
2023-05-06T04:25:49.284Z,3.78
2023-05-06T04:28:18.935Z,2.78
2023-05-06T04:30:48.080Z,3.45
2023-05-06T04:33:15.884Z,3.60
2023-05-06T04:35:53.168Z,3.10
2023-05-06T04:38:21.642Z,3.13
2023-05-06T04:40:50.229Z,3.15
2023-05-06T04:43:18.240Z,3.17
2023-05-06T04:45:49.320Z,3.55
2023-05-06T04:48:22.102Z,3.00
2023-05-06T04:50:50.275Z,2.70
2023-05-06T04:53:18.303Z,2.47
2023-05-06T04:55:46.115Z,2.88
2023-05-06T04:58:14.568Z,2.95
2023-05-06T05:00:42.769Z,2.95
2023-05-06T05:03:10.779Z,3.45
2023-05-06T05:05:39.950Z,3.15
2023-05-06T05:08:07.760Z,3.40
2023-05-06T05:10:35.586Z,2.88
2023-05-06T05:13:03.704Z,3.30
2023-05-06T05:15:31.557Z,3.45
2023-05-06T05:17:59.345Z,3.05
2023-05-06T05:20:27.103Z,3.13
2023-05-06T05:22:56.758Z,3.55
2023-05-06T05:25:25.189Z,2.83
2023-05-06T05:27:52.910Z,2.90
2023-05-06T05:30:20.848Z,3.20
2023-05-06T05:32:49.193Z,3.25
2023-05-06T05:35:17.094Z,3.17
2023-05-06T05:37:44.856Z,3.67
2023-05-06T05:40:14.782Z,3.55
2023-05-06T05:42:42.477Z,3.65
2023-05-06T05:45:11.208Z,3.75
2023-05-06T05:47:39.045Z,3.72
2023-05-06T05:50:08.132Z,3.70
2023-05-06T05:52:35.905Z,3.83
2023-05-06T05:55:03.690Z,3.47
2023-05-06T05:57:32.772Z,4.30
2023-05-06T06:00:00.982Z,3.70
2023-05-06T06:02:28.856Z,3.60
2023-05-06T06:04:56.744Z,3.13
2023-05-06T06:07:24.685Z,3.60
2023-05-06T06:09:52.813Z,2.80
2023-05-06T06:12:20.511Z,3.33
2023-05-06T06:14:50.067Z,3.00
2023-05-06T06:17:17.921Z,2.90
2023-05-06T06:19:46.437Z,2.95
2023-05-06T06:22:14.303Z,2.50
2023-05-06T06:24:41.998Z,2.97
2023-05-06T06:27:10.160Z,2.70
2023-05-06T06:29:37.873Z,2.50
2023-05-06T06:32:07.592Z,3.63
2023-05-06T06:34:35.479Z,2.90
2023-05-06T06:37:03.378Z,2.92
2023-05-06T06:39:31.247Z,3.28
2023-05-06T06:41:59.287Z,2.72
2023-05-06T06:44:26.992Z,2.63
2023-05-06T06:46:54.740Z,2.90
2023-05-06T06:49:23.822Z,3.00
2023-05-06T06:51:52.630Z,2.55
2023-05-06T06:54:20.415Z,2.80
2023-05-06T06:56:48.769Z,2.80
2023-05-06T06:59:16.595Z,2.80
2023-05-06T07:01:44.449Z,3.20
2023-05-06T07:04:12.435Z,3.28
2023-05-06T07:06:41.542Z,2.63
2023-05-06T07:09:09.850Z,2.58
2023-05-06T07:11:37.792Z,2.90
2023-05-06T07:14:05.672Z,2.65
2023-05-06T07:16:33.572Z,2.33
2023-05-06T07:19:01.464Z,2.20
2023-05-06T07:21:32.547Z,2.75
2023-05-06T07:24:01.728Z,2.30
2023-05-06T07:26:29.438Z,2.17
2023-05-06T07:28:57.228Z,2.97
2023-05-06T07:31:25.179Z,2.58
2023-05-06T07:33:52.934Z,2.60
2023-05-06T07:36:20.709Z,2.58
2023-05-06T07:38:48.455Z,2.58
2023-05-06T07:41:17.650Z,2.58
2023-05-06T07:43:45.471Z,3.03
2023-05-06T07:46:13.286Z,2.83
2023-05-06T07:48:41.508Z,2.38
2023-05-06T07:51:09.245Z,2.80
2023-05-06T07:53:38.172Z,2.50
2023-05-06T07:56:06.379Z,2.30
2023-05-06T07:58:36.073Z,2.90
2023-05-06T08:01:04.343Z,2.55
2023-05-06T08:03:32.288Z,2.10
2023-05-06T08:06:00.229Z,2.10
2023-05-06T08:08:28.342Z,2.50
2023-05-06T08:10:56.400Z,2.67
2023-05-06T08:13:24.368Z,2.28
2023-05-06T08:15:53.658Z,2.47
2023-05-06T08:18:23.105Z,2.38
2023-05-06T08:20:51.218Z,2.17
2023-05-06T08:23:19.084Z,2.17
2023-05-06T08:25:47.085Z,2.40
2023-05-06T08:28:14.956Z,2.28
2023-05-06T08:30:42.777Z,2.13
2023-05-06T08:33:11.947Z,2.03
2023-05-06T08:35:39.710Z,2.13
2023-05-06T08:38:07.389Z,2.47
2023-05-06T08:40:35.693Z,2.38
2023-05-06T08:43:05.803Z,2.40
2023-05-06T08:45:34.090Z,2.30
2023-05-06T08:48:02.437Z,2.10
2023-05-06T08:50:31.602Z,2.10
2023-05-06T08:52:59.827Z,2.47
2023-05-06T08:55:28.671Z,2.13
2023-05-06T08:57:58.447Z,2.20
2023-05-06T09:00:26.573Z,1.98
2023-05-06T09:02:54.425Z,2.25
2023-05-06T09:05:22.268Z,2.35
2023-05-06T09:07:51.696Z,2.40
2023-05-06T09:10:19.532Z,2.40
2023-05-06T09:12:47.453Z,2.10
2023-05-06T09:15:15.247Z,2.13
2023-05-06T09:17:43.095Z,2.30
2023-05-06T09:20:13.553Z,1.80
2023-05-06T09:22:41.378Z,2.20
2023-05-06T09:25:12.042Z,2.08
2023-05-06T09:27:40.774Z,2.00
2023-05-06T09:30:11.615Z,1.58
2023-05-06T09:32:40.587Z,1.70
2023-05-06T09:35:09.918Z,1.50
2023-05-06T09:37:37.896Z,1.80
2023-05-06T09:40:06.722Z,1.52
2023-05-06T09:42:36.144Z,1.60
2023-05-06T09:45:04.008Z,1.70
2023-05-06T09:47:35.162Z,2.03
2023-05-06T09:50:03.468Z,1.90
2023-05-06T09:52:32.024Z,2.03
2023-05-06T09:55:01.608Z,1.92
2023-05-06T09:57:30.831Z,1.60
2023-05-06T10:00:01.245Z,1.58
2023-05-06T10:02:30.105Z,1.80
2023-05-06T10:05:00.582Z,1.50
2023-05-06T10:07:29.995Z,1.73
2023-05-06T10:09:59.453Z,1.80
2023-05-06T10:12:27.429Z,1.58
2023-05-06T10:14:55.278Z,1.75
2023-05-06T10:17:26.282Z,1.80
2023-05-06T10:19:59.296Z,1.50
2023-05-06T10:22:38.690Z,1.60
2023-05-06T10:25:16.879Z,1.35
2023-05-06T10:27:46.445Z,1.80
2023-05-06T10:30:17.012Z,1.60
2023-05-06T10:32:47.001Z,1.70
2023-05-06T10:35:23.782Z,1.20
2023-05-06T10:37:53.331Z,1.67
2023-05-06T10:40:21.766Z,1.63
2023-05-06T10:42:49.489Z,1.80
2023-05-06T10:45:17.238Z,1.67
2023-05-06T10:48:10.695Z,1.60
2023-05-06T10:50:38.826Z,1.60
2023-05-06T10:53:06.563Z,1.30
2023-05-06T10:55:36.088Z,1.25
2023-05-06T10:58:05.420Z,1.38
2023-05-06T11:00:34.671Z,1.63
2023-05-06T11:03:03.944Z,1.90
2023-05-06T11:05:33.419Z,1.50
2023-05-06T11:08:11.286Z,1.50
2023-05-06T11:10:39.145Z,1.60
2023-05-06T11:13:24.474Z,1.50
2023-05-06T11:15:52.503Z,1.40
2023-05-06T11:18:43.002Z,1.73
2023-05-06T11:21:42.028Z,1.20
2023-05-06T11:24:11.669Z,1.67
2023-05-06T11:26:41.933Z,1.30
2023-05-06T11:29:10.126Z,1.35
2023-05-06T11:31:42.849Z,1.42
2023-05-06T11:34:13.482Z,1.50
2023-05-06T11:36:55.981Z,1.45
2023-05-06T11:39:23.821Z,1.58
2023-05-06T11:41:53.904Z,1.52
2023-05-06T11:44:28.911Z,1.40
2023-05-06T11:47:01.408Z,11.02
2023-05-06T11:49:29.373Z,1.88
2023-05-06T11:51:58.540Z,1.33
2023-05-06T11:54:27.589Z,1.48
2023-05-06T11:56:57.409Z,1.60
2023-05-06T11:59:30.212Z,1.30
2023-05-06T12:01:59.480Z,1.33
2023-05-06T12:04:27.610Z,1.35
2023-05-06T12:06:57.138Z,1.60
2023-05-06T12:09:26.831Z,1.40
2023-05-06T12:11:55.520Z,1.52
2023-05-06T12:14:23.685Z,1.40
2023-05-06T12:16:52.409Z,1.50
2023-05-06T12:19:22.359Z,1.50
2023-05-06T12:21:50.102Z,1.55
2023-05-06T12:24:30.114Z,1.50
2023-05-06T12:26:58.204Z,1.60
2023-05-06T12:29:25.980Z,1.60
2023-05-06T12:32:08.392Z,1.60
2023-05-06T12:34:40.255Z,1.52
2023-05-06T12:39:38.757Z,1.90
2023-05-06T12:42:07.715Z,2.30
2023-05-06T12:44:37.433Z,1.65
2023-05-06T12:47:07.412Z,1.67
2023-05-06T12:49:49.527Z,1.60
2023-05-06T12:52:18.508Z,1.55
2023-05-06T12:54:48.284Z,2.28
2023-05-06T12:57:16.300Z,1.50
2023-05-06T12:59:45.302Z,1.60
2023-05-06T13:02:13.436Z,1.77
2023-05-06T13:04:41.938Z,4.03
2023-05-06T13:07:09.704Z,3.08
2023-05-06T13:09:37.745Z,2.03
2023-05-06T13:12:07.592Z,1.50
2023-05-06T13:14:36.919Z,1.60
2023-05-06T13:17:06.754Z,1.67
2023-05-06T13:19:34.924Z,1.50
2023-05-06T13:22:02.759Z,1.55
2023-05-06T13:24:30.903Z,1.50
2023-05-06T13:27:00.599Z,1.92
2023-05-06T13:29:30.690Z,1.50
2023-05-06T13:31:58.673Z,1.88
2023-05-06T13:34:26.540Z,1.67
2023-05-06T13:36:54.574Z,1.77
2023-05-06T13:39:22.614Z,1.80
2023-05-06T13:41:51.033Z,1.60
2023-05-06T13:44:19.764Z,1.92
2023-05-06T13:46:49.593Z,1.75
2023-05-06T13:49:17.873Z,1.60
2023-05-06T13:51:45.927Z,1.70
2023-05-06T13:54:13.645Z,8.65
2023-05-06T13:56:41.441Z,2.10
2023-05-06T13:59:11.137Z,1.42
2023-05-06T14:01:39.303Z,1.90
2023-05-06T14:04:08.478Z,1.40
2023-05-06T14:06:36.271Z,1.80
2023-05-06T14:09:04.711Z,1.80
2023-05-06T14:11:32.555Z,1.52
2023-05-06T14:14:00.610Z,1.90
2023-05-06T14:16:28.423Z,1.70
2023-05-06T14:18:56.260Z,1.80
2023-05-06T14:21:25.818Z,1.80
2023-05-06T14:23:53.580Z,1.60
2023-05-06T14:26:21.372Z,1.30
2023-05-06T14:28:49.108Z,1.50
2023-05-06T14:31:16.982Z,1.70
2023-05-06T14:33:44.732Z,2.10
2023-05-06T14:36:12.541Z,1.70
2023-05-06T14:38:41.619Z,1.67
2023-05-06T14:41:09.287Z,1.85
2023-05-06T14:43:37.224Z,1.92
2023-05-06T14:46:05.096Z,1.70
2023-05-06T14:48:32.954Z,1.60
2023-05-06T14:51:00.799Z,1.58
2023-05-06T14:53:28.488Z,1.80
2023-05-06T14:55:57.632Z,1.73
2023-05-06T14:58:25.752Z,1.60
2023-05-06T15:00:53.596Z,1.50
2023-05-06T15:03:21.386Z,1.77
2023-05-06T15:05:50.628Z,1.85
2023-05-06T15:08:18.435Z,1.85
2023-05-06T15:10:46.538Z,1.92
2023-05-06T15:13:15.982Z,2.10
2023-05-06T15:15:43.791Z,1.70
2023-05-06T15:18:13.264Z,2.03
2023-05-06T15:20:41.471Z,1.85
2023-05-06T15:23:09.199Z,2.13
2023-05-06T15:25:37.103Z,2.00
2023-05-06T15:28:06.560Z,2.30
2023-05-06T15:30:37.655Z,1.63
2023-05-06T15:33:06.279Z,2.08
2023-05-06T15:35:34.113Z,1.50
2023-05-06T15:38:04.329Z,2.03
2023-05-06T15:40:32.134Z,2.20
2023-05-06T15:42:59.927Z,1.58
2023-05-06T15:45:28.150Z,2.22
2023-05-06T15:47:57.540Z,2.53
2023-05-06T15:52:59.375Z,3.00
2023-05-06T15:55:27.175Z,4.72
2023-05-06T15:57:55.814Z,2.80
2023-05-06T16:00:24.029Z,2.88
2023-05-06T16:02:51.835Z,1.80
2023-05-06T16:05:21.123Z,3.50
2023-05-06T16:07:49.644Z,3.42
2023-05-06T16:10:17.792Z,3.05
2023-05-06T16:12:45.990Z,3.35
2023-05-06T16:15:13.825Z,2.60
2023-05-06T16:17:41.857Z,4.10
2023-05-06T16:20:11.215Z,2.00
2023-05-06T16:22:41.402Z,2.00
2023-05-06T16:25:09.413Z,2.15
2023-05-06T16:27:37.421Z,2.45
2023-05-06T16:30:05.943Z,3.50
2023-05-06T16:32:33.802Z,2.35
2023-05-06T16:35:01.602Z,2.22
2023-05-06T16:37:29.473Z,1.80
2023-05-06T16:39:58.562Z,1.88
2023-05-06T16:42:26.651Z,1.90
2023-05-06T16:44:54.436Z,1.92
2023-05-06T16:47:24.084Z,2.00
2023-05-06T16:49:52.080Z,4.07
2023-05-06T16:52:20.164Z,4.82
2023-05-06T16:54:47.841Z,2.65
2023-05-06T16:57:17.169Z,2.38
2023-05-06T16:59:44.936Z,1.98
2023-05-06T17:02:12.801Z,2.70
2023-05-06T17:04:40.620Z,2.42
2023-05-06T17:07:10.986Z,1.80
2023-05-06T17:09:38.790Z,2.38
2023-05-06T17:12:07.455Z,1.73
2023-05-06T17:14:36.748Z,1.85
2023-05-06T17:17:05.384Z,1.92
2023-05-06T17:19:34.434Z,2.00
2023-05-06T17:22:02.193Z,2.28
2023-05-06T17:24:29.964Z,2.30
2023-05-06T17:26:57.879Z,1.92
2023-05-06T17:29:25.805Z,2.00
2023-05-06T17:31:54.997Z,1.98
2023-05-06T17:34:22.858Z,2.28
2023-05-06T17:36:50.584Z,2.03
2023-05-06T17:39:18.423Z,2.05
2023-05-06T17:41:46.123Z,2.40
2023-05-06T17:44:16.501Z,2.25
2023-05-06T17:46:45.423Z,2.42
2023-05-06T17:49:16.929Z,2.20
2023-05-06T17:51:46.031Z,2.30
2023-05-06T17:54:13.822Z,2.35
2023-05-06T17:56:41.673Z,2.42
2023-05-06T17:59:09.486Z,2.17
2023-05-06T18:01:37.373Z,2.15
2023-05-06T18:04:05.227Z,2.22
2023-05-06T18:06:34.586Z,1.70
2023-05-06T18:09:02.396Z,2.60
2023-05-06T18:11:30.204Z,1.95
2023-05-06T18:13:58.180Z,1.95
2023-05-06T18:16:26.139Z,2.05
2023-05-06T18:18:53.965Z,2.50
2023-05-06T18:21:22.284Z,2.45
2023-05-06T18:23:53.585Z,2.08
2023-05-06T18:26:43.351Z,2.05
2023-05-06T18:29:12.289Z,2.67
2023-05-06T18:31:40.241Z,2.10
2023-05-06T18:34:08.029Z,2.30
2023-05-06T18:36:36.536Z,2.30
2023-05-06T18:39:05.901Z,2.50
2023-05-06T18:41:34.028Z,2.33
2023-05-06T18:44:03.005Z,17.08
2023-05-06T18:46:30.830Z,6.90
2023-05-06T18:48:59.086Z,2.85
2023-05-06T18:51:27.474Z,2.28
2023-05-06T18:53:55.298Z,2.00
2023-05-06T18:56:24.688Z,2.30
2023-05-06T18:58:52.774Z,2.50
2023-05-06T19:01:20.833Z,2.60
2023-05-06T19:03:48.686Z,2.33
2023-05-06T19:06:16.439Z,2.67
2023-05-06T19:08:44.392Z,2.80
2023-05-06T19:11:16.520Z,2.35
2023-05-06T19:13:46.379Z,2.47
2023-05-06T19:16:14.784Z,2.90
2023-05-06T19:18:42.790Z,2.83
2023-05-06T19:21:10.930Z,2.70
2023-05-06T19:23:38.893Z,3.25
2023-05-06T19:26:07.319Z,3.35
2023-05-06T19:28:35.368Z,2.90
2023-05-06T19:31:07.593Z,3.33
2023-05-06T19:33:35.430Z,3.67
2023-05-06T19:36:03.233Z,3.08
2023-05-06T19:38:31.076Z,3.35
2023-05-06T19:40:58.806Z,3.20
2023-05-06T19:43:26.916Z,2.47
2023-05-06T19:45:54.702Z,2.80
2023-05-06T19:48:24.233Z,2.47
2023-05-06T19:50:53.972Z,1.98
2023-05-06T19:53:22.761Z,2.88
2023-05-06T19:55:50.907Z,2.58
2023-05-06T19:58:19.328Z,2.53
2023-05-06T20:00:47.086Z,2.67
2023-05-06T20:03:15.003Z,3.00
2023-05-06T20:05:44.132Z,2.92
2023-05-06T20:08:12.368Z,3.03
2023-05-06T20:10:40.104Z,3.63
2023-05-06T20:13:07.924Z,3.35
2023-05-06T20:15:36.367Z,3.90
2023-05-06T20:18:04.412Z,6.22
2023-05-06T20:20:34.343Z,23.48
2023-05-06T20:23:03.829Z,19.52
2023-05-06T20:25:31.741Z,16.35
2023-05-06T20:28:00.511Z,8.50
2023-05-06T20:30:28.357Z,4.28
2023-05-06T20:32:56.234Z,8.18
2023-05-06T20:35:24.150Z,7.78
2023-05-06T20:37:51.940Z,11.52
2023-05-06T20:40:21.258Z,14.00
2023-05-06T20:42:49.443Z,4.90
2023-05-06T20:45:18.172Z,3.10
2023-05-06T20:47:46.007Z,3.10
2023-05-06T20:50:17.050Z,2.85
2023-05-06T20:52:45.997Z,4.00
2023-05-06T20:55:15.255Z,12.18
2023-05-06T20:57:45.316Z,6.30
2023-05-06T21:00:14.512Z,5.75
2023-05-06T21:02:42.496Z,4.05
2023-05-06T21:05:11.760Z,3.30
2023-05-06T21:07:39.901Z,3.30
2023-05-06T21:10:08.305Z,3.60
2023-05-06T21:12:36.075Z,2.95
2023-05-06T21:15:06.272Z,3.00
2023-05-06T21:17:34.107Z,2.97
2023-05-06T21:20:03.036Z,2.88
2023-05-06T21:22:32.054Z,3.20
2023-05-06T21:24:59.903Z,3.05
2023-05-06T21:27:27.825Z,3.22
2023-05-06T21:29:55.541Z,2.83
2023-05-06T21:32:24.766Z,3.10
2023-05-06T21:34:52.524Z,3.05
2023-05-06T21:37:20.328Z,3.03
2023-05-06T21:39:48.032Z,3.03
2023-05-06T21:42:15.744Z,3.22
2023-05-06T21:44:43.527Z,3.28
2023-05-06T21:47:11.278Z,2.90
2023-05-06T21:49:40.400Z,2.70
2023-05-06T21:52:08.196Z,3.10
2023-05-06T21:54:35.901Z,2.75
2023-05-06T21:57:07.890Z,2.55
2023-05-06T21:59:36.213Z,2.47
2023-05-06T22:02:04.524Z,2.35
2023-05-06T22:04:32.526Z,2.20
2023-05-06T22:07:01.729Z,2.40
2023-05-06T22:09:29.511Z,2.22
2023-05-06T22:11:57.730Z,2.38
2023-05-06T22:14:30.211Z,2.80
2023-05-06T22:17:05.367Z,2.20
2023-05-06T22:19:33.160Z,2.47
2023-05-06T22:22:02.645Z,2.20
2023-05-06T22:24:30.422Z,1.83
2023-05-06T22:26:58.258Z,1.90
2023-05-06T22:29:26.068Z,2.10
2023-05-06T22:31:53.856Z,2.42
2023-05-06T22:34:21.722Z,2.20
2023-05-06T22:36:49.485Z,1.80
2023-05-06T22:39:18.737Z,1.88
2023-05-06T22:41:48.398Z,2.00
2023-05-06T22:44:16.148Z,1.92
2023-05-06T22:46:44.043Z,2.15
2023-05-06T22:49:11.741Z,1.85
2023-05-06T22:51:39.567Z,1.83
2023-05-06T22:54:07.320Z,1.95
2023-05-06T22:56:36.403Z,2.15
2023-05-06T22:59:04.193Z,2.15
2023-05-06T23:01:33.186Z,1.50
2023-05-06T23:04:01.267Z,1.85
2023-05-06T23:06:30.925Z,1.92
2023-05-06T23:08:58.771Z,1.75
2023-05-06T23:11:26.777Z,1.92
2023-05-06T23:13:55.939Z,2.13
2023-05-06T23:16:23.654Z,2.30
2023-05-06T23:18:51.428Z,1.75
2023-05-06T23:21:19.232Z,1.75
2023-05-06T23:23:47.002Z,1.92
2023-05-06T23:26:14.858Z,2.13
2023-05-06T23:28:42.692Z,1.83
2023-05-06T23:31:11.861Z,2.22
2023-05-06T23:33:39.716Z,2.28
2023-05-06T23:36:08.105Z,2.50
2023-05-06T23:38:36.264Z,2.30
2023-05-06T23:41:04.023Z,1.92
2023-05-06T23:43:31.715Z,2.17
2023-05-06T23:45:59.530Z,2.22
2023-05-06T23:48:28.728Z,2.00
2023-05-06T23:50:56.521Z,2.17
2023-05-06T23:53:24.400Z,2.50
2023-05-06T23:55:52.110Z,2.55
2023-05-06T23:58:19.816Z,2.20
